NCAR-RAP Real-Time Weather Data

Output produced by METARs form (17 September 2019  16:54 UTC)
found at http://weather.rap.ucar.edu/surface/
 
KBIS 171552Z 14007KT 10SM CLR 23/19 A2963 RMK AO2 SLP025 T02280189
KBIS 171452Z 15007KT 10SM CLR 21/18 A2963 RMK AO2 SLP026 T02110183 58004
KBIS 171352Z 14006KT 9SM CLR 20/18 A2964 RMK AO2 SLP028 T02000183
KBIS 171252Z 14005KT 7SM CLR 18/17 A2965 RMK AO2 SLP032 T01830172
KBIS 171152Z 14006KT 10SM CLR 19/18 A2964 RMK AO2 SLP029 T01890178 10200 20183 55000
KBIS 171052Z AUTO 14007KT 9SM CLR 19/18 A2964 RMK AO2 SLP025 T01940178
KBIS 170952Z AUTO 15006KT 9SM CLR 19/18 A2965 RMK AO2 SLP030 T01890178
KBIS 170852Z AUTO 14006KT 10SM CLR 19/18 A2964 RMK AO2 SLP027 T01940178 58008
KBIS 170752Z AUTO 14007KT 10SM CLR 20/18 A2966 RMK AO2 SLP031 T02000183
KBIS 170652Z AUTO 00000KT 10SM CLR 20/18 A2966 RMK AO2 SLP035 T02000178
KBIS 170552Z AUTO 15007KT 10SM CLR 20/18 A2967 RMK AO2 SLP038 T02000178 10267 20200 403110139 58007
KBIS 170452Z AUTO 16009KT 10SM CLR 21/18 A2968 RMK AO2 SLP043 T02060183
KBIS 170352Z 14010KT 10SM CLR 21/19 A2969 RMK AO2 SLP046 T02110189
KBIS 170252Z 15008KT 10SM CLR 22/19 A2969 RMK AO2 SLP047 T02170194 53002
KBIS 170052Z 14008KT 10SM CLR 24/18 A2968 RMK AO2 SLP047 T02390178
KBIS 162352Z 16012KT 10SM CLR 27/18 A2969 RMK AO2 SLP047 T02670183 10311 20256 55003
KBIS 162252Z 16010KT 10SM CLR 30/18 A2968 RMK AO2 SLP042 T03000183
KBIS 162152Z AUTO 16014KT 10SM CLR 30/18 A2969 RMK AO2 SLP044 T03000178
KBIS 162052Z 14011KT 10SM CLR 31/19 A2970 RMK AO2 SLP046 T03060189 56014